createdAt,value
2023-02-14T00:01:14.998Z,20.70
2023-02-14T00:03:42.061Z,20.80
2023-02-14T00:06:12.042Z,20.70
2023-02-14T00:08:41.171Z,20.80
2023-02-14T00:11:11.408Z,20.80
2023-02-14T00:13:38.798Z,20.70
2023-02-14T00:16:06.035Z,20.80
2023-02-14T00:18:53.021Z,20.70
2023-02-14T00:21:20.143Z,20.80
2023-02-14T00:23:47.189Z,20.70
2023-02-14T00:26:15.586Z,20.70
2023-02-14T00:28:42.730Z,20.70
2023-02-14T00:31:09.975Z,20.70
2023-02-14T00:33:37.435Z,20.70
2023-02-14T00:36:07.189Z,20.70
2023-02-14T00:38:35.227Z,20.70
2023-02-14T00:41:02.497Z,20.70
2023-02-14T00:43:30.080Z,20.70
2023-02-14T00:45:57.290Z,20.70
2023-02-14T00:48:24.650Z,20.70
2023-02-14T00:50:51.749Z,20.70
2023-02-14T00:53:18.788Z,20.70
2023-02-14T00:55:46.948Z,20.70
2023-02-14T00:58:14.183Z,20.70
2023-02-14T01:00:41.270Z,20.70
2023-02-14T01:03:08.377Z,20.70
2023-02-14T01:05:35.550Z,20.70
2023-02-14T01:08:02.703Z,20.70
2023-02-14T01:10:29.847Z,20.70
2023-02-14T01:12:57.136Z,20.70
2023-02-14T01:15:24.240Z,20.70
2023-02-14T01:17:51.327Z,20.60
2023-02-14T01:20:18.601Z,20.60
2023-02-14T01:22:45.754Z,20.60
2023-02-14T01:25:12.933Z,20.60
2023-02-14T01:27:40.080Z,20.60
2023-02-14T01:30:08.096Z,20.60
2023-02-14T01:32:36.039Z,20.60
2023-02-14T01:35:03.086Z,20.60
2023-02-14T01:37:30.764Z,20.60
2023-02-14T01:39:57.864Z,20.60
2023-02-14T01:42:24.932Z,20.60
2023-02-14T01:45:05.961Z,20.60
2023-02-14T01:47:38.050Z,20.60
2023-02-14T01:50:14.884Z,20.60
2023-02-14T01:52:49.752Z,20.60
2023-02-14T01:55:21.027Z,20.60
2023-02-14T01:58:04.627Z,20.60
2023-02-14T02:00:51.576Z,20.60
2023-02-14T02:03:20.342Z,20.60
2023-02-14T02:05:56.301Z,20.60
2023-02-14T02:08:23.626Z,20.60
2023-02-14T02:10:50.737Z,20.60
2023-02-14T02:13:19.929Z,20.60
2023-02-14T02:16:13.545Z,20.60
2023-02-14T02:18:56.785Z,20.60
2023-02-14T02:21:56.031Z,20.60
2023-02-14T02:25:02.856Z,20.60
2023-02-14T02:27:52.292Z,20.60
2023-02-14T02:30:59.378Z,20.60
2023-02-14T02:34:01.704Z,20.60
2023-02-14T02:37:07.219Z,20.60
2023-02-14T02:40:13.608Z,20.60
2023-02-14T02:43:08.539Z,20.60
2023-02-14T02:46:18.318Z,20.60
2023-02-14T02:49:08.741Z,20.60
2023-02-14T02:52:06.722Z,20.60
2023-02-14T02:54:45.252Z,20.50
2023-02-14T02:57:24.427Z,20.60
2023-02-14T02:59:54.416Z,20.50
2023-02-14T03:02:28.077Z,20.50
2023-02-14T03:04:59.047Z,20.60
2023-02-14T03:07:36.289Z,20.50
2023-02-14T03:10:26.379Z,20.50
2023-02-14T03:13:31.034Z,20.50
2023-02-14T03:16:26.849Z,20.50
2023-02-14T03:19:14.724Z,20.60
2023-02-14T03:22:07.506Z,20.50
2023-02-14T03:25:06.932Z,20.50
2023-02-14T03:27:45.618Z,20.50
2023-02-14T03:30:28.351Z,20.50
2023-02-14T03:33:12.886Z,20.50
2023-02-14T03:35:57.335Z,20.50
2023-02-14T03:38:32.216Z,20.50
2023-02-14T03:41:04.183Z,20.50
2023-02-14T03:43:36.743Z,20.50
2023-02-14T03:46:39.330Z,20.50
2023-02-14T03:49:11.779Z,20.50
2023-02-14T03:51:41.365Z,20.50
2023-02-14T03:54:10.616Z,20.50
2023-02-14T03:56:52.142Z,20.50
2023-02-14T03:59:23.510Z,20.50
2023-02-14T04:02:09.965Z,20.50
2023-02-14T04:04:41.538Z,20.50
2023-02-14T04:07:11.418Z,20.50
2023-02-14T04:09:38.681Z,20.50
2023-02-14T04:12:05.960Z,20.50
2023-02-14T04:14:33.348Z,20.50
2023-02-14T04:17:20.439Z,20.50
2023-02-14T04:19:47.529Z,20.50
2023-02-14T04:22:14.694Z,20.50
2023-02-14T04:24:41.746Z,20.50
2023-02-14T04:27:12.133Z,20.50
2023-02-14T04:29:40.363Z,20.50
2023-02-14T04:32:09.415Z,20.50
2023-02-14T04:34:37.624Z,20.50
2023-02-14T04:37:05.167Z,20.50
2023-02-14T04:39:32.291Z,20.50
2023-02-14T04:41:59.452Z,20.50
2023-02-14T04:44:27.287Z,20.50
2023-02-14T04:46:54.593Z,20.50
2023-02-14T04:49:21.766Z,20.50
2023-02-14T04:51:48.864Z,20.50
2023-02-14T04:54:15.980Z,20.50
2023-02-14T04:56:43.371Z,20.50
2023-02-14T04:59:10.688Z,20.50
2023-02-14T05:01:37.799Z,20.50
2023-02-14T05:04:05.108Z,20.50
2023-02-14T05:06:33.042Z,20.50
2023-02-14T05:09:01.115Z,20.50
2023-02-14T05:11:29.610Z,20.50
2023-02-14T05:13:56.791Z,20.50
2023-02-14T05:16:24.132Z,20.50
2023-02-14T05:18:51.224Z,20.50
2023-02-14T05:21:18.364Z,20.50
2023-02-14T05:23:45.729Z,20.50
2023-02-14T05:26:12.897Z,20.50
2023-02-14T05:28:41.208Z,20.50
2023-02-14T05:31:09.433Z,20.50
2023-02-14T05:33:36.799Z,20.50
2023-02-14T05:36:04.613Z,20.40
2023-02-14T05:38:33.556Z,20.40
2023-02-14T05:41:01.269Z,20.40
2023-02-14T05:43:30.400Z,20.40
2023-02-14T05:45:58.265Z,20.40
2023-02-14T05:48:25.630Z,20.30
2023-02-14T05:50:52.937Z,20.40
2023-02-14T05:53:20.238Z,20.30
2023-02-14T05:55:47.797Z,20.30
2023-02-14T05:58:15.036Z,20.30
2023-02-14T06:00:42.189Z,20.30
2023-02-14T06:03:09.514Z,20.40
2023-02-14T06:05:36.647Z,20.30
2023-02-14T06:08:03.789Z,20.40
2023-02-14T06:10:30.991Z,20.40
2023-02-14T06:12:58.123Z,20.40
2023-02-14T06:15:25.560Z,20.40
2023-02-14T06:17:57.065Z,20.50
2023-02-14T06:21:34.937Z,20.50
2023-02-14T06:24:02.141Z,20.60
2023-02-14T06:26:29.425Z,20.60
2023-02-14T06:29:35.164Z,20.70
2023-02-14T06:32:06.312Z,20.70
2023-02-14T06:38:34.953Z,20.90
2023-02-14T06:41:07.314Z,20.90
2023-02-14T06:43:35.284Z,21.00
2023-02-14T06:46:34.281Z,21.10
2023-02-14T06:56:57.626Z,21.20
2023-02-14T06:59:24.747Z,21.30
2023-02-14T07:01:51.948Z,21.30
2023-02-14T07:04:19.241Z,21.40
2023-02-14T07:06:55.184Z,21.40
2023-02-14T07:09:22.310Z,21.50
2023-02-14T07:15:30.919Z,21.60
2023-02-14T07:17:58.875Z,21.60
2023-02-14T07:20:26.307Z,21.70
2023-02-14T07:23:27.435Z,21.70
2023-02-14T07:25:55.945Z,21.70
2023-02-14T07:28:23.011Z,21.80
2023-02-14T07:34:43.518Z,21.90
2023-02-14T07:37:20.277Z,22.00
2023-02-14T07:40:36.847Z,22.00
2023-02-14T07:43:03.952Z,22.10
2023-02-14T07:45:31.107Z,22.10
2023-02-14T07:51:38.697Z,22.20
2023-02-14T07:54:05.876Z,22.20
2023-02-14T07:56:33.084Z,22.20
2023-02-14T07:59:00.410Z,22.30
2023-02-14T08:01:27.697Z,22.30
2023-02-14T08:07:48.678Z,22.40
2023-02-14T08:10:15.790Z,22.50
2023-02-14T08:13:02.844Z,22.50
2023-02-14T08:15:54.786Z,22.50
2023-02-14T08:22:17.374Z,22.60
2023-02-14T08:25:09.679Z,22.70
2023-02-14T08:27:36.760Z,22.70
2023-02-14T08:30:41.240Z,22.70
2023-02-14T08:36:35.467Z,22.80
2023-02-14T08:39:05.078Z,22.90
2023-02-14T08:41:36.138Z,22.90
2023-02-14T08:44:03.683Z,23.00
2023-02-14T08:50:21.734Z,23.00
2023-02-14T08:52:48.901Z,23.10
2023-02-14T08:56:38.370Z,23.10
2023-02-14T08:59:05.450Z,23.10
2023-02-14T09:01:32.932Z,23.10
2023-02-14T09:04:00.249Z,23.10
2023-02-14T09:10:28.898Z,23.20
2023-02-14T09:13:27.693Z,23.30
2023-02-14T09:15:54.849Z,23.30
2023-02-14T09:26:37.073Z,23.40
2023-02-14T09:29:04.209Z,23.50
2023-02-14T09:31:31.449Z,23.50
2023-02-14T09:34:59.481Z,23.50
2023-02-14T09:37:50.778Z,23.50
2023-02-14T09:40:20.366Z,23.60
2023-02-14T09:45:29.881Z,23.70
2023-02-14T09:48:41.552Z,23.70
2023-02-14T09:51:21.317Z,23.70
2023-02-14T10:06:39.037Z,23.90
2023-02-14T10:09:23.456Z,23.90
2023-02-14T10:11:51.442Z,24.00
2023-02-14T10:15:20.209Z,24.00
2023-02-14T10:18:20.960Z,24.00
2023-02-14T10:25:36.514Z,24.10
2023-02-14T10:32:03.218Z,24.10
2023-02-14T10:34:50.804Z,24.20
2023-02-14T10:37:57.614Z,24.20
2023-02-14T10:41:00.898Z,24.30
2023-02-14T10:43:52.320Z,24.30
2023-02-14T10:46:34.978Z,24.30
2023-02-14T10:49:28.922Z,24.30
2023-02-14T10:52:15.682Z,24.30
2023-02-14T10:54:46.125Z,24.40
2023-02-14T10:57:29.634Z,24.40
2023-02-14T11:00:02.116Z,24.40
2023-02-14T11:02:42.716Z,24.50
2023-02-14T11:05:25.886Z,24.50
2023-02-14T11:07:53.647Z,24.50
2023-02-14T11:10:25.793Z,24.50
2023-02-14T11:12:53.007Z,24.50
2023-02-14T11:15:39.215Z,24.50
2023-02-14T11:18:23.121Z,24.50
2023-02-14T11:21:24.422Z,24.50
2023-02-14T11:23:51.947Z,24.60
2023-02-14T11:26:34.693Z,24.60
2023-02-14T11:29:11.068Z,24.60
2023-02-14T11:31:40.053Z,24.60
2023-02-14T11:34:33.653Z,24.50
2023-02-14T11:37:01.166Z,24.60
2023-02-14T11:39:37.024Z,24.50
2023-02-14T11:42:06.081Z,24.50
2023-02-14T11:44:36.945Z,24.50
2023-02-14T11:47:25.270Z,24.50
2023-02-14T11:49:59.094Z,24.50
2023-02-14T11:52:29.950Z,24.50
2023-02-14T11:54:58.576Z,24.50
2023-02-14T11:57:40.006Z,24.50
2023-02-14T12:00:19.341Z,24.50
2023-02-14T12:02:50.252Z,24.50
2023-02-14T12:05:32.090Z,24.50
2023-02-14T12:08:02.333Z,24.60
2023-02-14T12:10:31.194Z,24.60
2023-02-14T12:13:24.315Z,24.60
2023-02-14T12:15:55.384Z,24.60
2023-02-14T12:18:40.890Z,24.60
2023-02-14T12:21:44.421Z,24.70
2023-02-14T12:24:18.788Z,24.60
2023-02-14T12:27:24.775Z,24.70
2023-02-14T12:30:08.003Z,24.70
2023-02-14T12:32:35.583Z,24.70
2023-02-14T12:35:16.485Z,24.70
2023-02-14T12:38:11.590Z,24.70
2023-02-14T12:41:11.064Z,24.70
2023-02-14T12:43:56.052Z,24.70
2023-02-14T12:47:02.478Z,24.70
2023-02-14T12:49:55.361Z,24.80
2023-02-14T12:52:46.595Z,24.70
2023-02-14T12:55:46.177Z,24.70
2023-02-14T12:58:37.855Z,24.70
2023-02-14T13:01:38.518Z,24.70
2023-02-14T13:04:44.316Z,24.70
2023-02-14T13:07:40.703Z,24.70
2023-02-14T13:10:40.325Z,24.70
2023-02-14T13:13:21.531Z,24.70
2023-02-14T13:16:08.512Z,24.60
2023-02-14T13:19:05.361Z,24.60
2023-02-14T13:21:37.572Z,24.60
2023-02-14T13:24:18.453Z,24.60
2023-02-14T13:26:53.909Z,24.60
2023-02-14T13:29:28.317Z,24.60
2023-02-14T13:32:01.386Z,24.60
2023-02-14T13:34:39.385Z,24.60
2023-02-14T13:37:11.165Z,24.60
2023-02-14T13:40:02.837Z,24.60
2023-02-14T13:42:52.139Z,24.70
2023-02-14T13:45:50.966Z,24.60
2023-02-14T13:48:27.511Z,24.60
2023-02-14T13:51:04.728Z,24.60
2023-02-14T13:53:49.171Z,24.70
2023-02-14T13:56:35.460Z,24.60
2023-02-14T13:59:06.264Z,24.60
2023-02-14T14:01:42.349Z,24.60
2023-02-14T14:04:33.980Z,24.60
2023-02-14T14:07:23.271Z,24.60
2023-02-14T14:09:54.884Z,24.60
2023-02-14T14:12:38.297Z,24.50
2023-02-14T14:15:15.665Z,24.50
2023-02-14T14:17:50.703Z,24.50
2023-02-14T14:20:52.622Z,24.50
2023-02-14T14:23:33.513Z,24.50
2023-02-14T14:26:01.841Z,24.50
2023-02-14T14:28:32.718Z,24.50
2023-02-14T14:31:00.089Z,24.40
2023-02-14T14:33:33.279Z,24.50
2023-02-14T14:36:08.400Z,24.40
2023-02-14T14:38:47.629Z,24.40
2023-02-14T14:41:14.840Z,24.40
2023-02-14T14:43:44.681Z,24.40
2023-02-14T14:46:14.654Z,24.40
2023-02-14T14:48:45.942Z,24.40
2023-02-14T14:51:33.871Z,24.40
2023-02-14T14:54:16.022Z,24.30
2023-02-14T14:56:52.146Z,24.30
2023-02-14T14:59:31.286Z,24.30
2023-02-14T15:01:58.475Z,24.30
2023-02-14T15:04:35.631Z,24.30
2023-02-14T15:07:33.336Z,24.30
2023-02-14T15:10:00.871Z,24.30
2023-02-14T15:12:49.064Z,24.30
2023-02-14T15:15:18.744Z,24.30
2023-02-14T15:17:46.909Z,24.30
2023-02-14T15:20:21.356Z,24.20
2023-02-14T15:22:50.862Z,24.20
2023-02-14T15:25:32.154Z,24.20
2023-02-14T15:27:59.456Z,24.20
2023-02-14T15:30:34.143Z,24.10
2023-02-14T15:33:03.849Z,24.10
2023-02-14T15:35:34.253Z,24.10
2023-02-14T15:38:04.571Z,24.00
2023-02-14T15:40:32.718Z,24.00
2023-02-14T15:43:15.300Z,23.90
2023-02-14T15:45:45.184Z,23.90
2023-02-14T15:48:30.802Z,23.90
2023-02-14T15:51:00.499Z,23.80
2023-02-14T15:53:37.380Z,23.80
2023-02-14T15:56:09.327Z,23.70
2023-02-14T15:58:38.044Z,23.70
2023-02-14T16:01:05.881Z,23.60
2023-02-14T16:03:37.168Z,23.60
2023-02-14T16:06:05.281Z,23.60
2023-02-14T16:08:39.728Z,23.50
2023-02-14T16:11:28.393Z,23.50
2023-02-14T16:13:55.597Z,23.40
2023-02-14T16:16:23.603Z,23.40
2023-02-14T16:18:56.911Z,23.40
2023-02-14T16:21:31.380Z,23.30
2023-02-14T16:24:12.396Z,23.30
2023-02-14T16:26:44.544Z,23.30
2023-02-14T16:29:15.651Z,23.20
2023-02-14T16:32:06.279Z,23.20
2023-02-14T16:34:32.902Z,23.10
2023-02-14T16:37:08.249Z,23.10
2023-02-14T16:39:36.157Z,23.00
2023-02-14T16:42:04.902Z,23.00
2023-02-14T16:44:32.095Z,23.00
2023-02-14T16:47:01.851Z,23.00
2023-02-14T16:49:28.973Z,22.90
2023-02-14T16:51:56.081Z,22.90
2023-02-14T16:54:26.762Z,22.90
2023-02-14T16:57:02.525Z,22.80
2023-02-14T16:59:30.563Z,22.80
2023-02-14T17:01:58.939Z,22.80
2023-02-14T17:04:26.039Z,22.80
2023-02-14T17:06:57.238Z,22.70
2023-02-14T17:09:33.008Z,22.70
2023-02-14T17:12:03.832Z,22.70
2023-02-14T17:14:37.232Z,22.60
2023-02-14T17:17:04.517Z,22.60
2023-02-14T17:19:33.155Z,22.60
2023-02-14T17:22:03.880Z,22.50
2023-02-14T17:24:31.758Z,22.50
2023-02-14T17:26:58.898Z,22.50
2023-02-14T17:29:26.099Z,22.50
2023-02-14T17:31:53.678Z,22.50
2023-02-14T17:34:20.800Z,22.40
2023-02-14T17:36:47.945Z,22.40
2023-02-14T17:39:17.385Z,22.40
2023-02-14T17:41:44.540Z,22.40
2023-02-14T17:44:12.844Z,22.40
2023-02-14T17:46:39.946Z,22.40
2023-02-14T17:49:08.471Z,22.30
2023-02-14T17:51:35.722Z,22.30
2023-02-14T17:54:02.853Z,22.30
2023-02-14T17:56:30.076Z,22.30
2023-02-14T17:58:57.384Z,22.20
2023-02-14T18:01:26.967Z,22.20
2023-02-14T18:03:54.911Z,22.30
2023-02-14T18:06:22.320Z,22.20
2023-02-14T18:08:52.986Z,22.20
2023-02-14T18:11:21.053Z,22.20
2023-02-14T18:13:48.302Z,22.20
2023-02-14T18:16:18.462Z,22.10
2023-02-14T18:18:46.132Z,22.10
2023-02-14T18:21:15.834Z,22.10
2023-02-14T18:23:43.401Z,22.10
2023-02-14T18:26:12.530Z,22.10
2023-02-14T18:28:40.471Z,22.10
2023-02-14T18:31:11.191Z,22.10
2023-02-14T18:33:38.417Z,22.10
2023-02-14T18:36:07.509Z,22.00
2023-02-14T18:38:35.325Z,22.00
2023-02-14T18:41:04.130Z,22.00
2023-02-14T18:43:31.568Z,22.00
2023-02-14T18:46:10.434Z,22.00
2023-02-14T18:48:38.231Z,21.90
2023-02-14T18:51:10.547Z,21.90
2023-02-14T18:53:38.707Z,21.90
2023-02-14T18:56:12.628Z,21.90
2023-02-14T18:58:41.164Z,21.90
2023-02-14T19:01:14.027Z,21.90
2023-02-14T19:03:41.408Z,21.90
2023-02-14T19:06:09.776Z,21.90
2023-02-14T19:08:39.823Z,21.80
2023-02-14T19:11:21.532Z,21.80
2023-02-14T19:13:51.503Z,21.80
2023-02-14T19:16:22.549Z,21.80
2023-02-14T19:18:55.984Z,21.80
2023-02-14T19:21:26.091Z,21.80
2023-02-14T19:23:56.223Z,21.80
2023-02-14T19:26:26.068Z,21.80
2023-02-14T19:28:58.707Z,21.70
2023-02-14T19:31:26.775Z,21.70
2023-02-14T19:33:54.232Z,21.70
2023-02-14T19:36:22.886Z,21.70
2023-02-14T19:38:51.538Z,21.70
2023-02-14T19:41:25.493Z,21.70
2023-02-14T19:43:55.353Z,21.70
2023-02-14T19:46:22.533Z,21.70
2023-02-14T19:48:49.757Z,21.70
2023-02-14T19:51:29.489Z,21.70
2023-02-14T19:54:00.411Z,21.60
2023-02-14T19:56:33.379Z,21.60
2023-02-14T19:59:00.916Z,21.60
2023-02-14T20:01:34.261Z,21.60
2023-02-14T20:04:01.596Z,21.60
2023-02-14T20:06:32.016Z,21.60
2023-02-14T20:08:59.064Z,21.60
2023-02-14T20:11:46.504Z,21.60
2023-02-14T20:14:14.658Z,21.60
2023-02-14T20:16:41.782Z,21.60
2023-02-14T20:19:16.603Z,21.60
2023-02-14T20:21:45.509Z,21.60
2023-02-14T20:24:18.383Z,21.60
2023-02-14T20:26:45.918Z,21.60
2023-02-14T20:29:13.038Z,21.60
2023-02-14T20:31:49.638Z,21.50
2023-02-14T20:34:17.616Z,21.50
2023-02-14T20:36:49.713Z,21.50
2023-02-14T20:39:16.860Z,21.50
2023-02-14T20:41:46.478Z,21.50
2023-02-14T20:44:17.057Z,21.50
2023-02-14T20:46:44.310Z,21.50
2023-02-14T20:49:12.450Z,21.40
2023-02-14T20:51:39.814Z,21.40
2023-02-14T20:54:07.171Z,21.40
2023-02-14T20:56:34.299Z,21.40
2023-02-14T20:59:02.423Z,21.40
2023-02-14T21:01:30.448Z,21.40
2023-02-14T21:03:57.881Z,21.40
2023-02-14T21:06:28.183Z,21.30
2023-02-14T21:08:55.541Z,21.30
2023-02-14T21:11:24.369Z,21.30
2023-02-14T21:13:55.432Z,21.30
2023-02-14T21:16:22.576Z,21.30
2023-02-14T21:18:55.305Z,21.30
2023-02-14T21:21:26.074Z,21.30
2023-02-14T21:23:53.667Z,21.30
2023-02-14T21:26:21.486Z,21.30
2023-02-14T21:28:48.932Z,21.30
2023-02-14T21:31:20.806Z,21.20
2023-02-14T21:33:53.560Z,21.20
2023-02-14T21:36:22.537Z,21.20
2023-02-14T21:38:50.475Z,21.20
2023-02-14T21:41:22.850Z,21.20
2023-02-14T21:43:55.260Z,21.20
2023-02-14T21:46:29.475Z,21.20
2023-02-14T21:49:21.063Z,21.20
2023-02-14T21:51:48.860Z,21.20
2023-02-14T21:54:16.933Z,21.10
2023-02-14T21:56:44.479Z,21.10
2023-02-14T21:59:11.775Z,21.10
2023-02-14T22:01:41.261Z,21.10
2023-02-14T22:04:10.529Z,21.10
2023-02-14T22:06:40.018Z,21.10
2023-02-14T22:09:08.012Z,21.10
2023-02-14T22:11:35.417Z,21.10
2023-02-14T22:14:03.124Z,21.10
2023-02-14T22:16:30.233Z,21.10
2023-02-14T22:18:57.697Z,21.10
2023-02-14T22:21:26.972Z,21.00
2023-02-14T22:23:57.562Z,21.10
2023-02-14T22:26:27.941Z,21.10
2023-02-14T22:28:59.655Z,21.00
2023-02-14T22:31:28.961Z,21.00
2023-02-14T22:33:56.727Z,21.00
2023-02-14T22:36:24.345Z,21.00
2023-02-14T22:38:51.620Z,21.00
2023-02-14T22:41:21.625Z,21.00
2023-02-14T22:43:49.261Z,21.00
2023-02-14T22:46:19.907Z,21.00
2023-02-14T22:48:48.550Z,21.00
2023-02-14T22:51:33.261Z,20.90
2023-02-14T22:54:06.755Z,20.90
2023-02-14T22:56:40.113Z,21.00
2023-02-14T22:59:14.003Z,20.90
2023-02-14T23:01:41.138Z,20.90
2023-02-14T23:04:08.216Z,20.90
2023-02-14T23:06:36.951Z,20.90
2023-02-14T23:09:06.558Z,20.90
2023-02-14T23:11:35.814Z,20.90
2023-02-14T23:14:22.835Z,20.90
2023-02-14T23:17:09.844Z,20.90
2023-02-14T23:19:57.682Z,20.80
2023-02-14T23:22:28.938Z,20.80
2023-02-14T23:24:58.587Z,20.80
2023-02-14T23:27:35.313Z,20.80
2023-02-14T23:30:03.075Z,20.80
2023-02-14T23:32:30.275Z,20.80
2023-02-14T23:34:58.734Z,20.80
2023-02-14T23:37:25.992Z,20.80
2023-02-14T23:39:53.297Z,20.80
2023-02-14T23:42:20.446Z,20.80
2023-02-14T23:44:47.786Z,20.70
2023-02-14T23:47:16.105Z,20.80
2023-02-14T23:49:43.896Z,20.70
2023-02-14T23:52:13.154Z,20.70
2023-02-14T23:54:40.396Z,20.70
2023-02-14T23:57:08.812Z,20.70
2023-02-14T23:59:35.919Z,20.70
